Terminal Aerodrome Forecast
Issued by NWS Buffalo, NY

Home | Current Version | Previous Version | Text Only | Print | Product List | Glossary On
Versions: 1 2 3 4 5 6 7 8 9 10 11 12 13 14 15 16 17 18 19 20 21 22 23
000
FTUS41 KBUF 110310 AAA
TAFART
TAF AMD
KART 110310Z 1103/1124 26011G18KT P6SM VCSH OVC025
      TEMPO 1103/1104 1/2SM SN OVC015
     FM110400 27011G21KT 2SM -SN OVC015
     FM110600 29010G18KT P6SM VCSH BKN020
     FM110800 35009KT P6SM BKN040
     FM112200 14004KT P6SM OVC090=

USA.gov is the U.S. government's official web portal to all federal, state and local government web resources and services.